WIOO/PNK METAR and TAF weather

Enter ICAO airport designator
Station Type Date Time Source
WIOO METAR 2021/07/26 14:00 UTC NOAA

WIOO 261400Z 00000KT 6000 SCT012 27/26 Q1009 NOSIG


Station Type Date Time Source
WIOO Decoded METAR 2021/07/26 14:00 UTC NOAA

Pontianak / Supadio, Indonesia (WIOO) 00-09S 109-24E 3M
Jul 26, 2021 - 10:00 AM EDT / 2021.07.26 1400 UTC
Wind: Calm:0
Visibility: 3 mile(s):0
Sky conditions: partly cloudy
Temperature: 80 F (27 C)
Dew Point: 78 F (26 C)
Relative Humidity: 94%
Pressure (altimeter): 29.80 in. Hg (1009 hPa)
ob: WIOO 261400Z 00000KT 6000 SCT012 27/26 Q1009 NOSIG
cycle: 14

Station Type Date Time Source
WIOO TAF 2014/03/26 00:51 UTC NOAA

TAF TAF WIOO 252300Z 2600/2624 10002KT 7000 SCT011
BECMG 2601/2603 08005KT 9999
TEMPO 2607/2610 15010KT 3000

Example: see airport list